SBJR

Details ICAO SBJR
Name Jacarepagua
Region Brazil
Timezone America/Sao_Paulo (UTC-3.0)
Plans Departing 14
Arriving 15
Stats Elevation 10 ft / 3 m (AMSL)
Location -22.987778° -43.370277°
Runways 1
Magnetic Variation 22.655° W
Sunrise 2017-06-28 09:35:59 UTC / 2017-06-28 06:35:59 Local
Sunset 2017-06-28 20:19:55 UTC / 2017-06-28 17:19:55 Local
Advertisement - Login to hide

Runways

ID Width Length Bearing (true) Bearing (mag) Surface Threshold Offset Overrun Length
02 42 ft / 13 m 2,955 ft / 901 m 359.00° 21.65° Concrete 0 ft / 0 m 0 ft / 0 m
20 42 ft / 13 m 2,955 ft / 901 m 179.00° 201.65° Concrete 0 ft / 0 m 0 ft / 0 m

Map

Weather


0- 5 10 15 20 25 30 35+ Temperature / ° C

Clouds and Precipitation
Forecast for 2017-06-28 18:00 UTC. Updated 2 hours ago

Ground ~20,000 ft ~40,000 ft Winds

METAR

SBJR 281700Z 17003KT CAVOK 26/20 Q1021

TAF

Not found
Warning: Do not use this data for real-world aviation or navigation. No guarantee of current accuracy is given.